createdAt,value
2019-01-23T00:00:14.950Z,19.17
2019-01-23T00:02:44.911Z,18.53
2019-01-23T00:05:13.286Z,18.23
2019-01-23T00:07:41.654Z,16.40
2019-01-23T00:10:12.328Z,19.43
2019-01-23T00:12:40.749Z,18.50
2019-01-23T00:15:09.125Z,19.43
2019-01-23T00:17:43.070Z,18.73
2019-01-23T00:20:13.046Z,19.80
2019-01-23T00:22:41.415Z,18.97
2019-01-23T00:25:09.835Z,17.67
2019-01-23T00:27:38.202Z,18.10
2019-01-23T00:30:08.210Z,17.20
2019-01-23T00:32:36.658Z,17.23
2019-01-23T00:35:05.401Z,17.53
2019-01-23T00:37:34.838Z,16.63
2019-01-23T00:40:03.973Z,16.93
2019-01-23T00:42:32.354Z,13.07
2019-01-23T00:45:00.724Z,15.83
2019-01-23T00:47:29.103Z,16.87
2019-01-23T00:49:57.469Z,15.77
2019-01-23T00:52:27.441Z,15.57
2019-01-23T00:54:55.822Z,16.23
2019-01-23T00:57:24.196Z,15.67
2019-01-23T00:59:53.350Z,15.13
2019-01-23T01:02:21.734Z,15.40
2019-01-23T01:04:50.678Z,14.63
2019-01-23T01:07:19.050Z,15.80
2019-01-23T01:09:47.426Z,15.57
2019-01-23T01:12:17.634Z,13.40
2019-01-23T01:14:46.016Z,13.67
2019-01-23T01:17:14.384Z,14.83
2019-01-23T01:19:42.762Z,14.43
2019-01-23T01:22:11.153Z,14.07
2019-01-23T01:24:39.521Z,13.83
2019-01-23T01:27:07.894Z,13.13
2019-01-23T01:29:36.265Z,14.53
2019-01-23T01:32:04.678Z,14.90
2019-01-23T01:34:34.683Z,14.77
2019-01-23T01:37:03.055Z,14.80
2019-01-23T01:39:31.713Z,14.60
2019-01-23T01:42:00.094Z,15.70
2019-01-23T01:44:28.458Z,16.03
2019-01-23T01:46:56.842Z,15.10
2019-01-23T01:49:25.201Z,16.70
2019-01-23T01:51:53.573Z,15.23
2019-01-23T01:54:21.941Z,16.30
2019-01-23T01:56:50.318Z,16.50
2019-01-23T01:59:18.689Z,16.07
2019-01-23T02:01:47.066Z,16.10
2019-01-23T02:04:15.450Z,15.93
2019-01-23T02:06:43.821Z,15.87
2019-01-23T02:09:12.198Z,16.07
2019-01-23T02:11:40.594Z,15.97
2019-01-23T02:14:08.970Z,16.23
2019-01-23T02:16:37.350Z,14.70
2019-01-23T02:19:05.729Z,16.03
2019-01-23T02:21:34.110Z,17.80
2019-01-23T02:24:02.490Z,18.47
2019-01-23T02:26:30.875Z,18.83
2019-01-23T02:29:02.202Z,16.10
2019-01-23T02:31:32.431Z,19.23
2019-01-23T02:34:00.878Z,18.97
2019-01-23T02:36:29.238Z,18.37
2019-01-23T02:38:59.657Z,17.10
2019-01-23T02:41:28.032Z,19.23
2019-01-23T02:43:56.698Z,15.27
2019-01-23T02:46:25.069Z,19.87
2019-01-23T02:48:54.807Z,19.90
2019-01-23T02:51:23.186Z,20.80
2019-01-23T02:53:51.562Z,20.07
2019-01-23T02:56:19.942Z,20.53
2019-01-23T02:58:48.323Z,19.03
2019-01-23T03:01:16.702Z,20.47
2019-01-23T03:03:45.075Z,19.13
2019-01-23T03:06:13.449Z,18.73
2019-01-23T03:08:41.819Z,20.83
2019-01-23T03:11:10.185Z,19.50
2019-01-23T03:13:38.558Z,16.50
2019-01-23T03:16:06.942Z,19.70
2019-01-23T03:18:35.326Z,17.77
2019-01-23T03:21:03.704Z,19.13
2019-01-23T03:23:33.961Z,17.27
2019-01-23T03:26:02.327Z,18.87
2019-01-23T03:28:32.782Z,19.73
2019-01-23T03:31:02.389Z,18.43
2019-01-23T03:33:30.758Z,20.57
2019-01-23T03:35:59.132Z,17.27
2019-01-23T03:38:27.498Z,19.77
2019-01-23T03:40:55.874Z,18.23
2019-01-23T03:43:24.238Z,21.30
2019-01-23T03:45:52.617Z,19.47
2019-01-23T03:48:20.979Z,19.83
2019-01-23T03:50:49.499Z,20.00
2019-01-23T03:53:17.865Z,16.70
2019-01-23T03:55:46.235Z,21.10
2019-01-23T03:58:16.251Z,20.90
2019-01-23T04:00:44.617Z,19.57
2019-01-23T04:03:13.014Z,19.47
2019-01-23T04:05:41.379Z,22.10
2019-01-23T04:08:09.747Z,20.73
2019-01-23T04:10:38.089Z,20.93
2019-01-23T04:13:06.435Z,21.47
2019-01-23T04:15:34.780Z,20.93
2019-01-23T04:18:03.133Z,21.00
2019-01-23T04:20:33.109Z,16.63
2019-01-23T04:23:01.462Z,20.20
2019-01-23T04:25:30.094Z,20.43
2019-01-23T04:27:59.357Z,20.53
2019-01-23T04:30:27.713Z,17.57
2019-01-23T04:32:56.067Z,20.47
2019-01-23T04:35:24.418Z,20.37
2019-01-23T04:37:52.756Z,19.40
2019-01-23T04:40:22.828Z,20.50
2019-01-23T04:42:51.179Z,20.70
2019-01-23T04:45:19.524Z,22.07
2019-01-23T04:47:49.332Z,19.90
2019-01-23T04:50:18.198Z,20.27
2019-01-23T04:52:48.193Z,19.73
2019-01-23T04:55:16.538Z,19.67
2019-01-23T04:57:44.893Z,22.43
2019-01-23T05:00:14.884Z,20.83
2019-01-23T05:02:43.225Z,22.83
2019-01-23T05:05:11.575Z,20.80
2019-01-23T05:07:39.921Z,20.50
2019-01-23T05:10:08.273Z,21.57
2019-01-23T05:12:36.616Z,21.40
2019-01-23T05:15:05.840Z,20.97
2019-01-23T05:17:34.185Z,22.50
2019-01-23T05:20:02.796Z,21.50
2019-01-23T05:22:31.150Z,21.23
2019-01-23T05:25:00.694Z,21.87
2019-01-23T05:27:29.040Z,20.10
2019-01-23T05:29:57.389Z,20.20
2019-01-23T05:32:25.999Z,22.80
2019-01-23T05:34:55.541Z,21.10
2019-01-23T05:37:23.874Z,22.43
2019-01-23T05:39:52.253Z,22.30
2019-01-23T05:42:21.346Z,21.27
2019-01-23T05:44:49.879Z,21.13
2019-01-23T05:47:18.238Z,23.03
2019-01-23T05:49:46.582Z,23.23
2019-01-23T05:52:14.940Z,18.17
2019-01-23T05:54:43.272Z,22.93
2019-01-23T05:57:14.497Z,23.13
2019-01-23T05:59:43.713Z,21.87
2019-01-23T06:02:12.071Z,21.07
2019-01-23T06:04:43.059Z,20.23
2019-01-23T06:07:12.557Z,21.70
2019-01-23T06:09:40.917Z,21.13
2019-01-23T06:12:10.535Z,21.00
2019-01-23T06:14:38.875Z,21.70
2019-01-23T06:17:07.227Z,19.67
2019-01-23T06:19:35.561Z,23.13
2019-01-23T06:22:03.905Z,21.03
2019-01-23T06:24:32.264Z,20.60
2019-01-23T06:27:02.086Z,20.70
2019-01-23T06:29:30.457Z,23.80
2019-01-23T06:31:58.809Z,23.77
2019-01-23T06:34:28.441Z,21.87
2019-01-23T06:36:56.798Z,21.30
2019-01-23T06:39:27.687Z,20.77
2019-01-23T06:41:56.029Z,22.23
2019-01-23T06:44:29.502Z,20.20
2019-01-23T06:46:57.847Z,20.00
2019-01-23T06:49:27.658Z,21.47
2019-01-23T06:51:56.011Z,20.53
2019-01-23T06:54:25.336Z,20.97
2019-01-23T06:56:53.706Z,20.70
2019-01-23T06:59:22.050Z,16.87
2019-01-23T07:01:50.389Z,20.63
2019-01-23T07:04:20.709Z,18.90
2019-01-23T07:06:49.098Z,20.17
2019-01-23T07:09:18.713Z,20.70
2019-01-23T07:11:48.224Z,21.40
2019-01-23T07:14:17.845Z,22.37
2019-01-23T07:16:47.433Z,20.57
2019-01-23T07:19:15.881Z,21.23
2019-01-23T07:21:44.225Z,21.83
2019-01-23T07:24:12.620Z,21.47
2019-01-23T07:26:40.981Z,21.10
2019-01-23T07:29:09.330Z,20.07
2019-01-23T07:31:38.990Z,20.60
2019-01-23T07:34:07.343Z,21.23
2019-01-23T07:36:36.924Z,20.23
2019-01-23T07:39:08.041Z,19.60
2019-01-23T07:41:36.389Z,19.03
2019-01-23T07:44:04.869Z,20.63
2019-01-23T07:46:33.229Z,21.53
2019-01-23T07:49:01.582Z,20.00
2019-01-23T07:51:32.078Z,22.47
2019-01-23T07:54:03.622Z,19.97
2019-01-23T07:56:33.198Z,19.73
2019-01-23T07:59:02.317Z,20.23
2019-01-23T08:01:31.663Z,18.63
2019-01-23T08:03:59.990Z,21.60
2019-01-23T08:06:28.341Z,19.97
2019-01-23T08:08:56.693Z,20.37
2019-01-23T08:11:25.042Z,20.70
2019-01-23T08:13:54.668Z,21.23
2019-01-23T08:16:23.346Z,19.50
2019-01-23T08:18:51.690Z,19.63
2019-01-23T08:21:21.234Z,21.43
2019-01-23T08:23:49.572Z,19.87
2019-01-23T08:26:17.929Z,20.77
2019-01-23T08:28:46.829Z,20.70
2019-01-23T08:31:15.177Z,20.67
2019-01-23T08:33:44.115Z,21.10
2019-01-23T08:36:12.453Z,21.73
2019-01-23T08:38:40.797Z,21.47
2019-01-23T08:41:09.140Z,22.17
2019-01-23T08:43:37.517Z,19.87
2019-01-23T08:46:08.522Z,21.40
2019-01-23T08:48:39.102Z,20.53
2019-01-23T08:51:09.092Z,21.27
2019-01-23T08:53:38.338Z,20.67
2019-01-23T08:56:06.682Z,22.20
2019-01-23T08:58:35.034Z,20.60
2019-01-23T09:01:04.452Z,21.93
2019-01-23T09:03:32.834Z,20.80
2019-01-23T09:06:01.182Z,22.27
2019-01-23T09:08:29.525Z,22.87
2019-01-23T09:10:57.881Z,21.53
2019-01-23T09:13:27.212Z,23.07
2019-01-23T09:15:56.870Z,21.70
2019-01-23T09:18:26.397Z,20.53
2019-01-23T09:20:54.930Z,19.77
2019-01-23T09:23:23.274Z,23.53
2019-01-23T09:25:51.718Z,24.47
2019-01-23T09:28:20.120Z,24.83
2019-01-23T09:30:52.952Z,22.87
2019-01-23T09:33:30.680Z,23.03
2019-01-23T09:36:08.085Z,21.30
2019-01-23T09:38:47.359Z,23.57
2019-01-23T09:41:33.501Z,22.27
2019-01-23T09:44:07.793Z,21.90
2019-01-23T09:46:45.145Z,23.20
2019-01-23T09:49:17.861Z,22.70
2019-01-23T09:52:02.505Z,24.30
2019-01-23T09:54:32.006Z,22.87
2019-01-23T09:57:00.456Z,25.03
2019-01-23T09:59:28.822Z,25.03
2019-01-23T10:01:57.173Z,22.80
2019-01-23T10:04:25.576Z,24.63
2019-01-23T10:06:53.927Z,24.13
2019-01-23T10:09:25.657Z,23.90
2019-01-23T10:11:55.546Z,21.10
2019-01-23T10:14:28.313Z,22.50
2019-01-23T10:16:56.656Z,23.73
2019-01-23T10:19:27.098Z,22.47
2019-01-23T10:21:56.951Z,23.90
2019-01-23T10:24:27.923Z,22.77
2019-01-23T10:26:56.701Z,20.83
2019-01-23T10:29:25.869Z,23.00
2019-01-23T10:31:54.221Z,23.70
2019-01-23T10:34:24.215Z,22.77
2019-01-23T10:36:52.593Z,24.10
2019-01-23T10:39:20.954Z,24.43
2019-01-23T10:41:49.298Z,23.17
2019-01-23T10:44:17.650Z,22.17
2019-01-23T10:46:47.524Z,21.63
2019-01-23T10:49:16.142Z,23.70
2019-01-23T10:51:45.853Z,24.23
2019-01-23T10:54:14.193Z,22.93
2019-01-23T10:56:42.537Z,23.33
2019-01-23T10:59:11.950Z,22.83
2019-01-23T11:01:42.097Z,23.43
2019-01-23T11:04:11.858Z,23.27
2019-01-23T11:06:42.257Z,23.50
2019-01-23T11:09:12.296Z,23.87
2019-01-23T11:11:40.855Z,23.73
2019-01-23T11:14:09.281Z,25.57
2019-01-23T11:16:37.628Z,23.47
2019-01-23T11:19:05.960Z,24.60
2019-01-23T11:21:36.962Z,22.47
2019-01-23T11:24:05.372Z,21.83
2019-01-23T11:26:34.937Z,24.13
2019-01-23T11:29:04.414Z,23.87
2019-01-23T11:31:32.837Z,23.83
2019-01-23T11:34:01.195Z,25.50
2019-01-23T11:36:29.529Z,24.27
2019-01-23T11:38:57.974Z,23.70
2019-01-23T11:41:28.585Z,24.17
2019-01-23T11:43:58.006Z,23.53
2019-01-23T11:46:26.350Z,25.47
2019-01-23T11:48:56.769Z,23.57
2019-01-23T11:51:27.057Z,23.50
2019-01-23T11:53:55.548Z,24.80
2019-01-23T11:56:23.898Z,24.43
2019-01-23T11:58:52.258Z,23.13
2019-01-23T12:01:27.533Z,22.07
2019-01-23T12:03:52.113Z,22.73
2019-01-23T12:06:20.453Z,25.43
2019-01-23T12:08:49.696Z,24.73
2019-01-23T12:11:18.037Z,24.00
2019-01-23T12:13:46.388Z,21.87
2019-01-23T12:16:14.766Z,23.67
2019-01-23T12:18:43.181Z,22.30
2019-01-23T12:21:11.534Z,23.37
2019-01-23T12:23:39.881Z,23.07
2019-01-23T12:26:08.212Z,22.13
2019-01-23T12:28:36.593Z,22.90
2019-01-23T12:31:06.151Z,23.03
2019-01-23T12:33:34.760Z,21.27
2019-01-23T12:36:03.109Z,19.07
2019-01-23T12:38:31.456Z,21.23
2019-01-23T12:41:00.876Z,21.43
2019-01-23T12:43:29.216Z,20.73
2019-01-23T12:45:58.540Z,22.50
2019-01-23T12:48:26.885Z,16.40
2019-01-23T12:50:55.241Z,18.87
2019-01-23T12:53:23.584Z,20.40
2019-01-23T12:55:53.021Z,19.17
2019-01-23T12:58:21.364Z,20.43
2019-01-23T13:00:49.718Z,20.43
2019-01-23T13:03:18.073Z,21.67
2019-01-23T13:05:46.412Z,19.00
2019-01-23T13:08:15.326Z,19.87
2019-01-23T13:10:43.673Z,18.17
2019-01-23T13:13:12.014Z,19.40
2019-01-23T13:15:42.334Z,21.50
2019-01-23T13:18:10.673Z,20.47
2019-01-23T13:20:39.023Z,20.00
2019-01-23T13:23:07.373Z,20.13
2019-01-23T13:25:40.634Z,18.67
2019-01-23T13:28:05.838Z,19.50
2019-01-23T13:30:35.461Z,19.40
2019-01-23T13:33:03.812Z,20.13
2019-01-23T13:35:33.329Z,18.87
2019-01-23T13:38:02.053Z,20.00
2019-01-23T13:40:31.660Z,20.07
2019-01-23T13:43:01.148Z,19.00
2019-01-23T13:45:30.062Z,18.50
2019-01-23T13:47:58.477Z,19.13
2019-01-23T13:50:28.013Z,20.27
2019-01-23T13:52:57.350Z,21.90
2019-01-23T13:55:28.294Z,21.03
2019-01-23T13:57:57.756Z,18.50
2019-01-23T14:00:33.401Z,20.37
2019-01-23T14:03:02.810Z,19.67
2019-01-23T14:05:31.155Z,19.73
2019-01-23T14:07:59.497Z,23.03
2019-01-23T14:10:27.846Z,21.53
2019-01-23T14:12:56.198Z,20.33
2019-01-23T14:15:30.370Z,21.30
2019-01-23T14:17:58.712Z,20.73
2019-01-23T14:20:27.127Z,19.47
2019-01-23T14:22:56.934Z,21.20
2019-01-23T14:25:26.905Z,19.70
2019-01-23T14:27:55.254Z,18.63
2019-01-23T14:30:31.421Z,17.97
2019-01-23T14:33:00.036Z,21.70
2019-01-23T14:35:28.855Z,19.93
2019-01-23T14:38:00.710Z,21.00
2019-01-23T14:40:30.171Z,20.37
2019-01-23T14:42:58.507Z,20.70
2019-01-23T14:45:28.298Z,21.00
2019-01-23T14:47:56.636Z,19.47
2019-01-23T14:50:25.956Z,19.53
2019-01-23T14:52:55.580Z,22.03
2019-01-23T14:55:23.941Z,21.73
2019-01-23T14:57:52.887Z,20.23
2019-01-23T15:00:25.199Z,21.77
2019-01-23T15:02:54.625Z,18.00
2019-01-23T15:05:22.992Z,18.63
2019-01-23T15:07:51.338Z,19.33
2019-01-23T15:10:21.313Z,19.20
2019-01-23T15:12:49.667Z,20.77
2019-01-23T15:15:18.089Z,19.13
2019-01-23T15:17:46.436Z,18.53
2019-01-23T15:20:17.594Z,20.63
2019-01-23T15:22:45.947Z,20.17
2019-01-23T15:25:14.296Z,19.40
2019-01-23T15:27:42.913Z,18.40
2019-01-23T15:30:13.141Z,19.27
2019-01-23T15:32:41.502Z,19.50
2019-01-23T15:35:10.421Z,19.30
2019-01-23T15:37:38.772Z,16.87
2019-01-23T15:40:11.466Z,18.07
2019-01-23T15:42:39.879Z,18.83
2019-01-23T15:45:09.489Z,20.33
2019-01-23T15:47:37.853Z,19.60
2019-01-23T15:50:07.824Z,16.03
2019-01-23T15:52:36.168Z,17.07
2019-01-23T15:55:07.194Z,17.10
2019-01-23T15:57:35.857Z,18.07
2019-01-23T16:00:05.840Z,18.83
2019-01-23T16:02:34.185Z,17.33
2019-01-23T16:05:02.545Z,19.03
2019-01-23T16:07:30.957Z,19.37
2019-01-23T16:09:59.302Z,17.87
2019-01-23T16:12:27.657Z,19.33
2019-01-23T16:14:55.993Z,19.60
2019-01-23T16:17:24.338Z,16.83
2019-01-23T16:19:52.694Z,19.10
2019-01-23T16:22:21.041Z,20.37
2019-01-23T16:24:49.400Z,19.90
2019-01-23T16:27:17.806Z,19.63
2019-01-23T16:29:46.386Z,18.60
2019-01-23T16:32:14.874Z,20.07
2019-01-23T16:34:43.217Z,18.47
2019-01-23T16:37:11.563Z,23.33
2019-01-23T16:39:40.186Z,20.70
2019-01-23T16:42:08.506Z,20.83
2019-01-23T16:44:36.860Z,20.70
2019-01-23T16:47:05.201Z,20.27
2019-01-23T16:49:33.593Z,22.13
2019-01-23T16:52:01.951Z,21.87
2019-01-23T16:54:30.355Z,20.63
2019-01-23T16:56:58.691Z,20.83
2019-01-23T16:59:27.474Z,21.50
2019-01-23T17:01:55.840Z,19.97
2019-01-23T17:04:24.193Z,20.83
2019-01-23T17:06:52.574Z,18.97
2019-01-23T17:09:20.969Z,21.37
2019-01-23T17:11:49.609Z,20.40
2019-01-23T17:14:17.969Z,21.37
2019-01-23T17:16:46.317Z,20.23
2019-01-23T17:19:14.922Z,21.47
2019-01-23T17:21:43.637Z,26.43
2019-01-23T17:24:12.157Z,22.53
2019-01-23T17:26:40.488Z,21.13
2019-01-23T17:29:08.922Z,22.03
2019-01-23T17:31:37.275Z,21.37
2019-01-23T17:34:05.608Z,27.70
2019-01-23T17:36:33.971Z,22.63
2019-01-23T17:39:03.657Z,21.33
2019-01-23T17:41:33.604Z,21.20
2019-01-23T17:44:02.016Z,20.73
2019-01-23T17:46:30.376Z,22.20
2019-01-23T17:48:58.805Z,22.40
2019-01-23T17:51:28.606Z,19.40
2019-01-23T17:53:56.956Z,21.30
2019-01-23T17:56:25.678Z,21.33
2019-01-23T17:58:54.415Z,22.23
2019-01-23T18:01:24.335Z,21.77
2019-01-23T18:03:53.262Z,19.37
2019-01-23T18:06:21.620Z,20.83
2019-01-23T18:08:50.426Z,20.40
2019-01-23T18:11:18.782Z,21.13
2019-01-23T18:13:47.134Z,22.33
2019-01-23T18:16:15.468Z,20.23
2019-01-23T18:18:43.825Z,22.23
2019-01-23T18:21:12.178Z,21.63
2019-01-23T18:23:40.529Z,23.33
2019-01-23T18:26:08.874Z,22.60
2019-01-23T18:28:37.221Z,22.47
2019-01-23T18:31:13.381Z,23.07
2019-01-23T18:33:46.144Z,20.93
2019-01-23T18:36:32.877Z,18.53
2019-01-23T18:39:03.432Z,22.50
2019-01-23T18:41:37.785Z,22.57
2019-01-23T18:44:13.607Z,21.07
2019-01-23T18:46:44.940Z,22.03
2019-01-23T18:49:31.753Z,23.67
2019-01-23T18:52:07.593Z,21.23
2019-01-23T18:54:36.003Z,21.50
2019-01-23T18:57:05.810Z,20.27
2019-01-23T18:59:34.166Z,20.07
2019-01-23T19:02:02.509Z,21.73
2019-01-23T19:04:30.879Z,19.53
2019-01-23T19:06:59.233Z,21.93
2019-01-23T19:09:27.573Z,21.77
2019-01-23T19:11:55.991Z,19.83
2019-01-23T19:14:27.422Z,22.57
2019-01-23T19:16:55.765Z,20.83
2019-01-23T19:19:24.109Z,21.30
2019-01-23T19:21:55.200Z,25.30
2019-01-23T19:24:22.513Z,21.03
2019-01-23T19:26:51.102Z,21.53
2019-01-23T19:29:20.627Z,22.37
2019-01-23T19:31:48.966Z,23.33
2019-01-23T19:34:17.321Z,23.77
2019-01-23T19:36:45.653Z,22.63
2019-01-23T19:39:14.023Z,22.57
2019-01-23T19:41:42.625Z,23.87
2019-01-23T19:44:10.957Z,22.43
2019-01-23T19:46:40.939Z,18.73
2019-01-23T19:49:09.440Z,24.00
2019-01-23T19:51:37.820Z,23.77
2019-01-23T19:54:06.162Z,25.57
2019-01-23T19:56:34.509Z,24.53
2019-01-23T19:59:02.867Z,23.67
2019-01-23T20:01:31.281Z,25.37
2019-01-23T20:03:59.950Z,26.07
2019-01-23T20:06:28.541Z,24.83
2019-01-23T20:08:56.894Z,26.00
2019-01-23T20:11:25.246Z,25.67
2019-01-23T20:13:53.895Z,26.33
2019-01-23T20:16:22.281Z,24.60
2019-01-23T20:18:51.416Z,25.37
2019-01-23T20:21:19.765Z,26.17
2019-01-23T20:23:49.301Z,24.90
2019-01-23T20:26:17.653Z,25.00
2019-01-23T20:28:45.995Z,25.50
2019-01-23T20:31:14.343Z,24.03
2019-01-23T20:33:42.685Z,24.20
2019-01-23T20:36:11.042Z,25.57
2019-01-23T20:38:39.394Z,23.10
2019-01-23T20:41:07.753Z,25.10
2019-01-23T20:43:36.161Z,25.63
2019-01-23T20:46:04.597Z,27.07
2019-01-23T20:48:32.959Z,24.90
2019-01-23T20:51:01.310Z,26.60
2019-01-23T20:53:29.673Z,26.33
2019-01-23T20:55:58.263Z,25.83
2019-01-23T20:58:26.633Z,26.23
2019-01-23T21:00:54.979Z,27.60
2019-01-23T21:03:23.331Z,27.40
2019-01-23T21:05:52.283Z,27.87
2019-01-23T21:08:20.801Z,26.47
2019-01-23T21:10:49.441Z,27.07
2019-01-23T21:13:18.957Z,27.63
2019-01-23T21:15:47.317Z,27.63
2019-01-23T21:18:15.677Z,26.27
2019-01-23T21:20:44.022Z,26.40
2019-01-23T21:23:12.372Z,28.17
2019-01-23T21:25:40.713Z,26.27
2019-01-23T21:28:09.068Z,26.30
2019-01-23T21:30:37.426Z,26.03
2019-01-23T21:33:05.775Z,27.70
2019-01-23T21:35:34.131Z,26.30
2019-01-23T21:38:02.469Z,27.13
2019-01-23T21:40:30.989Z,27.37
2019-01-23T21:42:59.343Z,28.20
2019-01-23T21:45:27.753Z,29.67
2019-01-23T21:47:56.954Z,27.03
2019-01-23T21:50:25.335Z,27.20
2019-01-23T21:52:54.853Z,26.87
2019-01-23T21:55:24.074Z,28.27
2019-01-23T21:57:52.617Z,28.50
2019-01-23T22:00:25.329Z,26.80
2019-01-23T22:02:54.448Z,25.80
2019-01-23T22:05:22.791Z,26.40
2019-01-23T22:07:51.147Z,26.67
2019-01-23T22:10:19.491Z,26.53
2019-01-23T22:12:47.837Z,26.47
2019-01-23T22:15:17.570Z,27.13
2019-01-23T22:17:46.774Z,26.17
2019-01-23T22:20:18.925Z,26.30
2019-01-23T22:22:47.273Z,26.30
2019-01-23T22:25:16.899Z,23.37
2019-01-23T22:27:45.253Z,26.07
2019-01-23T22:30:15.228Z,25.23
2019-01-23T22:32:44.611Z,26.87
2019-01-23T22:35:12.916Z,24.87
2019-01-23T22:37:41.273Z,26.63
2019-01-23T22:40:11.091Z,24.77
2019-01-23T22:42:39.504Z,24.83
2019-01-23T22:45:09.425Z,24.83
2019-01-23T22:47:37.789Z,24.27
2019-01-23T22:50:13.897Z,25.77
2019-01-23T22:52:42.255Z,23.20
2019-01-23T22:55:10.603Z,25.30
2019-01-23T22:57:38.980Z,25.17
2019-01-23T23:00:25.773Z,24.33
2019-01-23T23:02:55.725Z,23.07
2019-01-23T23:05:24.099Z,25.50
2019-01-23T23:07:52.514Z,24.80
2019-01-23T23:10:20.861Z,26.17
2019-01-23T23:12:49.221Z,26.43
2019-01-23T23:15:17.566Z,25.83
2019-01-23T23:17:45.919Z,23.33
2019-01-23T23:20:14.274Z,23.70
2019-01-23T23:22:42.616Z,24.90
2019-01-23T23:25:11.045Z,24.93
2019-01-23T23:27:39.748Z,27.07
2019-01-23T23:30:15.456Z,25.50
2019-01-23T23:32:44.977Z,27.87
2019-01-23T23:35:13.325Z,26.00
2019-01-23T23:37:41.673Z,25.53
2019-01-23T23:40:11.654Z,26.87
2019-01-23T23:42:40.001Z,24.13
2019-01-23T23:45:09.997Z,26.00
2019-01-23T23:47:38.341Z,25.23
2019-01-23T23:50:08.366Z,26.70
2019-01-23T23:52:36.718Z,25.93
2019-01-23T23:55:06.029Z,26.70
2019-01-23T23:57:35.448Z,27.53
